KSHL

Sheldon Regional Airport

Sheldon, Iowa, USA
METAR KSHL 211435Z AUTO 17005KT 2 1/2SM BR OVC004 13/13 A3003 RMK AO2
Observed Flight Rules
May-21 @ 14:35 UTC (22 minutes ago) Instrument Flight Rules
Wind Visibility Clouds Conditions
170° at 5 knots 2 1/2 miles
  • Overcast at 400' AGL
  • Mist
Temperatures Readings
Current 13°C / 55°F
Dewpoint 13°C / 55°F
Humidity 100%
Altimeter 30.03" Hg
Pressure 1017 hPa
Elevation 432
METAR KSHL 211435Z AUTO 17005KT 2 1/2SM BR OVC004 13/13 A3003 RMK AO2
Observed Flight Rules
May-21 @ 14:35 UTC
(22 minutes ago)
LIFR
Wind Visibility
170° at 5 knots 2 1/2 miles
Clouds
  • Overcast at 400' AGL
Conditions
  • Mist
Temperature Dewpoint
13°C / 55°F 13°C / 55°F
Humidity Altimeter Pressure
100% 30.03" Hg 1017 hPa